Terminal Aerodrome Forecast
Issued by NWS

Home | Current Version | Previous Version | Text Only | Print | Product List | Glossary On
Versions: 1 2 3 4 5 6 7 8 9 10 11 12 13 14 15 16 17 18 19 20 21 22 23
000
FTUS43 KDVN 031700
TAFBRL
TAF
KBRL 031720Z 0318/0418 22013KT 1 1/2SM -DZ BR OVC003
     FM032100 27013G18KT 2SM -DZ BR OVC005
     FM040000 31014G19KT 4SM BR OVC007
     FM040400 33015G20KT 6SM BR SCT007 OVC012
     FM040900 33013G18KT P6SM SCT012 BKN070=

USA.gov is the U.S. government's official web portal to all federal, state and local government web resources and services.